createdAt,value
2023-04-18T00:00:10.677Z,0.27
2023-04-18T00:02:44.039Z,0.27
2023-04-18T00:05:13.381Z,0.31
2023-04-18T00:07:41.630Z,0.32
2023-04-18T00:10:11.858Z,0.35
2023-04-18T00:12:40.445Z,0.34
2023-04-18T00:15:09.906Z,0.36
2023-04-18T00:17:39.747Z,0.33
2023-04-18T00:20:10.702Z,0.16
2023-04-18T00:22:42.521Z,0.32
2023-04-18T00:25:12.658Z,0.29
2023-04-18T00:27:40.889Z,0.26
2023-04-18T00:30:10.826Z,0.22
2023-04-18T00:32:39.817Z,0.20
2023-04-18T00:35:08.856Z,0.18
2023-04-18T00:37:37.586Z,0.21
2023-04-18T00:40:07.057Z,0.22
2023-04-18T00:42:36.711Z,0.20
2023-04-18T00:45:05.566Z,0.19
2023-04-18T00:47:36.203Z,0.17
2023-04-18T00:50:04.856Z,0.16
2023-04-18T00:52:34.837Z,0.14
2023-04-18T00:55:03.920Z,0.13
2023-04-18T00:57:32.837Z,0.11
2023-04-18T01:00:04.485Z,0.06
2023-04-18T01:02:35.834Z,0.02
2023-04-18T01:05:06.164Z,-0.11
2023-04-18T01:07:35.931Z,-0.22
2023-04-18T01:10:04.924Z,-0.19
2023-04-18T01:12:33.532Z,-0.20
2023-04-18T01:15:04.151Z,-0.11
2023-04-18T01:17:35.616Z,-0.15
2023-04-18T01:20:06.262Z,-0.14
2023-04-18T01:22:35.110Z,-0.15
2023-04-18T01:25:10.146Z,-0.16
2023-04-18T01:27:38.418Z,-0.15
2023-04-18T01:30:08.153Z,-0.10
2023-04-18T01:32:36.573Z,-0.07
2023-04-18T01:35:05.378Z,-0.03
2023-04-18T01:37:36.211Z,-0.02
2023-04-18T01:40:04.899Z,0.01
2023-04-18T01:42:34.605Z,0.00
2023-04-18T01:45:03.001Z,0.00
2023-04-18T01:47:31.986Z,-0.01
2023-04-18T01:50:00.263Z,-0.01
2023-04-18T01:52:31.550Z,-0.04
2023-04-18T01:55:02.160Z,-0.06
2023-04-18T01:57:32.178Z,-0.12
2023-04-18T02:00:01.898Z,-0.21
2023-04-18T02:02:32.754Z,-0.29
2023-04-18T02:05:01.039Z,-0.44
2023-04-18T02:07:29.625Z,-0.51
2023-04-18T02:09:58.448Z,-0.53
2023-04-18T02:12:26.885Z,-0.53
2023-04-18T02:14:55.661Z,-0.56
2023-04-18T02:17:25.540Z,-0.60
2023-04-18T02:19:56.540Z,-0.59
2023-04-18T02:22:24.946Z,-0.62
2023-04-18T02:24:53.197Z,-0.58
2023-04-18T02:27:21.455Z,-0.56
2023-04-18T02:29:49.603Z,-0.55
2023-04-18T02:32:18.007Z,-0.54
2023-04-18T02:34:47.746Z,-0.53
2023-04-18T02:37:18.674Z,-0.51
2023-04-18T02:39:46.923Z,-0.51
2023-04-18T02:42:15.729Z,-0.51
2023-04-18T02:44:44.109Z,-0.48
2023-04-18T02:47:12.363Z,-0.47
2023-04-18T02:49:43.393Z,-0.46
2023-04-18T02:52:13.051Z,-0.45
2023-04-18T02:54:41.332Z,-0.42
2023-04-18T02:57:14.695Z,-0.38
2023-04-18T02:59:55.280Z,-0.36
2023-04-18T03:02:42.152Z,-0.36
2023-04-18T03:05:30.792Z,-0.40
2023-04-18T03:08:03.569Z,-0.45
2023-04-18T03:10:32.366Z,-0.44
2023-04-18T03:13:01.165Z,-0.41
2023-04-18T03:15:31.162Z,-0.36
2023-04-18T03:18:00.323Z,-0.32
2023-04-18T03:20:33.029Z,-0.31
2023-04-18T03:23:01.368Z,-0.26
2023-04-18T03:25:34.333Z,-0.25
2023-04-18T03:28:03.387Z,-0.18
2023-04-18T03:30:33.225Z,-0.15
2023-04-18T03:33:05.306Z,-0.12
2023-04-18T03:35:34.180Z,-0.06
2023-04-18T03:38:02.759Z,0.00
2023-04-18T03:40:36.424Z,0.03
2023-04-18T03:43:11.062Z,0.06
2023-04-18T03:45:39.534Z,0.07
2023-04-18T03:48:08.329Z,0.11
2023-04-18T03:50:41.359Z,0.13
2023-04-18T03:53:11.746Z,0.19
2023-04-18T03:55:43.425Z,0.15
2023-04-18T03:58:14.248Z,0.25
2023-04-18T04:00:43.150Z,0.32
2023-04-18T04:03:13.262Z,0.38
2023-04-18T04:05:41.734Z,0.50
2023-04-18T04:08:10.037Z,0.57
2023-04-18T04:10:38.490Z,0.68
2023-04-18T04:13:08.088Z,0.75
2023-04-18T04:15:39.790Z,0.84
2023-04-18T04:18:11.018Z,0.93
2023-04-18T04:20:43.283Z,1.04
2023-04-18T04:23:15.642Z,1.14
2023-04-18T04:25:46.980Z,1.25
2023-04-18T04:28:28.800Z,1.37
2023-04-18T04:31:02.260Z,1.45
2023-04-18T04:33:33.332Z,1.46
2023-04-18T04:36:05.897Z,1.53
2023-04-18T04:38:38.185Z,1.69
2023-04-18T04:41:07.596Z,1.76
2023-04-18T04:43:37.994Z,1.89
2023-04-18T04:46:07.712Z,2.00
2023-04-18T04:48:36.167Z,2.09
2023-04-18T04:51:05.610Z,2.23
2023-04-18T04:53:34.086Z,2.30
2023-04-18T04:56:04.814Z,2.44
2023-04-18T04:58:35.192Z,2.53
2023-04-18T05:01:25.750Z,2.63
2023-04-18T05:03:55.913Z,2.76
2023-04-18T05:06:25.139Z,2.86
2023-04-18T05:08:53.623Z,2.95
2023-04-18T05:11:22.002Z,3.02
2023-04-18T05:13:50.313Z,3.14
2023-04-18T05:16:18.793Z,3.20
2023-04-18T05:18:48.447Z,3.26
2023-04-18T05:21:16.697Z,3.34
2023-04-18T05:23:44.965Z,3.38
2023-04-18T05:26:13.462Z,3.49
2023-04-18T05:28:41.653Z,3.60
2023-04-18T05:31:10.011Z,3.69
2023-04-18T05:33:38.308Z,3.78
2023-04-18T05:36:08.961Z,3.86
2023-04-18T05:38:37.313Z,3.94
2023-04-18T05:41:05.721Z,4.04
2023-04-18T05:43:34.639Z,4.05
2023-04-18T05:46:02.995Z,4.23
2023-04-18T05:48:31.351Z,4.31
2023-04-18T05:50:59.769Z,4.42
2023-04-18T05:53:29.450Z,4.45
2023-04-18T05:55:59.184Z,4.48
2023-04-18T05:58:28.798Z,4.62
2023-04-18T06:00:57.311Z,4.68
2023-04-18T06:03:26.004Z,4.77
2023-04-18T06:05:54.740Z,4.83
2023-04-18T06:08:23.119Z,4.95
2023-04-18T06:10:53.183Z,5.04
2023-04-18T06:13:21.578Z,5.15
2023-04-18T06:15:49.897Z,5.26
2023-04-18T06:18:18.183Z,5.31
2023-04-18T06:21:05.398Z,5.42
2023-04-18T06:23:52.316Z,5.55
2023-04-18T06:26:40.893Z,5.73
2023-04-18T06:29:09.299Z,5.86
2023-04-18T06:31:37.547Z,5.98
2023-04-18T06:34:07.429Z,6.06
2023-04-18T06:36:35.722Z,6.21
2023-04-18T06:39:04.049Z,6.33
2023-04-18T06:41:32.735Z,6.47
2023-04-18T06:44:04.624Z,6.54
2023-04-18T06:46:33.755Z,6.62
2023-04-18T06:49:02.339Z,6.74
2023-04-18T06:51:31.664Z,6.84
2023-04-18T06:53:59.938Z,6.90
2023-04-18T06:56:29.654Z,6.99
2023-04-18T06:58:57.814Z,7.05
2023-04-18T07:01:27.594Z,7.16
2023-04-18T07:03:55.919Z,7.24
2023-04-18T07:06:24.233Z,7.27
2023-04-18T07:08:54.414Z,7.29
2023-04-18T07:11:23.657Z,7.33
2023-04-18T07:13:51.934Z,7.40
2023-04-18T07:16:20.386Z,7.40
2023-04-18T07:18:49.997Z,7.40
2023-04-18T07:21:18.228Z,7.49
2023-04-18T07:23:46.475Z,7.54
2023-04-18T07:26:14.815Z,7.59
2023-04-18T07:28:43.135Z,7.63
2023-04-18T07:31:11.829Z,7.67
2023-04-18T07:33:40.256Z,7.66
2023-04-18T07:36:10.430Z,7.70
2023-04-18T07:38:38.595Z,7.67
2023-04-18T07:41:06.931Z,7.68
2023-04-18T07:43:35.192Z,7.71
2023-04-18T07:46:03.529Z,7.72
2023-04-18T07:48:31.787Z,7.70
2023-04-18T07:51:00.080Z,7.72
2023-04-18T07:53:29.668Z,7.75
2023-04-18T07:55:57.888Z,7.74
2023-04-18T07:58:26.110Z,7.76
2023-04-18T08:00:54.336Z,7.78
2023-04-18T08:03:22.747Z,7.72
2023-04-18T08:05:51.974Z,7.76
2023-04-18T08:08:20.861Z,7.82
2023-04-18T08:10:50.947Z,7.89
2023-04-18T08:13:19.182Z,8.00
2023-04-18T08:15:47.751Z,8.09
2023-04-18T08:18:16.027Z,8.25
2023-04-18T08:20:44.247Z,8.32
2023-04-18T08:23:13.347Z,8.44
2023-04-18T08:25:41.856Z,8.63
2023-04-18T08:28:11.797Z,8.71
2023-04-18T08:30:40.100Z,8.86
2023-04-18T08:33:08.387Z,8.95
2023-04-18T08:35:37.619Z,9.08
2023-04-18T08:38:05.833Z,9.21
2023-04-18T08:40:34.432Z,9.36
2023-04-18T08:43:04.927Z,9.48
2023-04-18T08:45:34.785Z,9.60
2023-04-18T08:48:04.011Z,9.78
2023-04-18T08:50:32.632Z,9.98
2023-04-18T08:53:02.001Z,10.21
2023-04-18T08:55:30.462Z,10.31
2023-04-18T08:57:59.701Z,10.40
2023-04-18T09:00:29.354Z,10.53
2023-04-18T09:02:59.261Z,10.65
2023-04-18T09:05:28.345Z,10.79
2023-04-18T09:07:57.511Z,10.92
2023-04-18T09:10:28.920Z,11.00
2023-04-18T09:12:58.560Z,11.05
2023-04-18T09:15:29.334Z,11.21
2023-04-18T09:18:02.705Z,11.40
2023-04-18T09:20:38.088Z,11.59
2023-04-18T09:23:11.026Z,11.68
2023-04-18T09:25:46.624Z,11.68
2023-04-18T09:28:27.082Z,11.64
2023-04-18T09:30:57.091Z,11.77
2023-04-18T09:33:32.622Z,11.92
2023-04-18T09:36:19.408Z,11.91
2023-04-18T09:38:48.300Z,11.91
2023-04-18T09:41:19.844Z,11.89
2023-04-18T09:43:50.709Z,11.90
2023-04-18T09:46:19.045Z,11.89
2023-04-18T09:48:49.202Z,11.93
2023-04-18T09:51:18.116Z,12.08
2023-04-18T09:53:47.785Z,12.14
2023-04-18T09:56:21.426Z,12.07
2023-04-18T09:58:57.048Z,12.06
2023-04-18T10:01:28.974Z,12.09
2023-04-18T10:04:03.433Z,12.19
2023-04-18T10:06:34.584Z,12.23
2023-04-18T10:09:05.845Z,12.35
2023-04-18T10:11:34.454Z,12.27
2023-04-18T10:14:05.751Z,12.28
2023-04-18T10:16:36.114Z,12.09
2023-04-18T10:19:27.194Z,12.02
2023-04-18T10:21:56.778Z,11.94
2023-04-18T10:24:50.409Z,11.73
2023-04-18T10:27:19.734Z,11.62
2023-04-18T10:29:50.068Z,11.58
2023-04-18T10:32:20.724Z,11.55
2023-04-18T10:34:53.449Z,11.57
2023-04-18T10:37:21.798Z,11.58
2023-04-18T10:39:57.012Z,11.62
2023-04-18T10:42:58.878Z,11.73
2023-04-18T10:45:28.622Z,11.76
2023-04-18T10:48:25.940Z,11.83
2023-04-18T10:51:16.288Z,12.10
2023-04-18T10:53:55.227Z,12.15
2023-04-18T10:56:23.742Z,12.24
2023-04-18T10:58:53.342Z,12.51
2023-04-18T11:01:31.684Z,12.60
2023-04-18T11:04:01.692Z,12.62
2023-04-18T11:06:31.784Z,12.72
2023-04-18T11:09:12.626Z,12.81
2023-04-18T11:11:41.678Z,12.84
2023-04-18T11:14:10.219Z,12.81
2023-04-18T11:16:38.925Z,12.91
2023-04-18T11:19:21.168Z,13.03
2023-04-18T11:21:51.848Z,13.04
2023-04-18T11:24:24.482Z,13.07
2023-04-18T11:26:55.936Z,13.24
2023-04-18T11:29:25.133Z,13.22
2023-04-18T11:31:56.687Z,13.28
2023-04-18T11:34:30.593Z,13.28
2023-04-18T11:37:00.906Z,13.33
2023-04-18T11:39:29.403Z,13.40
2023-04-18T11:41:58.292Z,13.45
2023-04-18T11:44:27.710Z,13.54
2023-04-18T11:46:55.939Z,13.69
2023-04-18T11:49:29.205Z,13.98
2023-04-18T11:51:57.741Z,13.99
2023-04-18T11:54:44.906Z,13.74
2023-04-18T11:57:25.443Z,13.90
2023-04-18T11:59:55.229Z,13.94
2023-04-18T12:02:25.363Z,14.14
2023-04-18T12:04:56.084Z,14.10
2023-04-18T12:07:32.398Z,13.98
2023-04-18T12:10:02.481Z,13.94
2023-04-18T12:12:32.381Z,14.22
2023-04-18T12:15:02.113Z,14.53
2023-04-18T12:17:34.434Z,14.86
2023-04-18T12:20:04.180Z,15.16
2023-04-18T12:22:46.540Z,14.57
2023-04-18T12:25:23.507Z,14.25
2023-04-18T12:27:56.367Z,14.04
2023-04-18T12:30:26.204Z,14.20
2023-04-18T12:32:57.221Z,14.46
2023-04-18T12:35:26.538Z,14.78
2023-04-18T12:37:56.551Z,14.69
2023-04-18T12:40:27.461Z,14.34
2023-04-18T12:42:56.292Z,13.88
2023-04-18T12:45:25.769Z,13.88
2023-04-18T12:47:54.429Z,14.27
2023-04-18T12:50:24.658Z,14.61
2023-04-18T12:52:53.924Z,14.39
2023-04-18T12:55:22.773Z,14.48
2023-04-18T12:57:54.850Z,14.37
2023-04-18T13:00:24.469Z,14.21
2023-04-18T13:02:53.424Z,14.20
2023-04-18T13:05:23.316Z,14.35
2023-04-18T13:07:58.570Z,14.59
2023-04-18T13:10:33.447Z,14.73
2023-04-18T13:13:03.088Z,14.64
2023-04-18T13:15:31.504Z,14.58
2023-04-18T13:18:04.530Z,14.51
2023-04-18T13:20:34.079Z,14.42
2023-04-18T13:23:03.352Z,14.48
2023-04-18T13:25:31.919Z,14.21
2023-04-18T13:28:00.951Z,13.97
2023-04-18T13:30:32.083Z,13.86
2023-04-18T13:33:00.518Z,13.89
2023-04-18T13:35:28.802Z,13.98
2023-04-18T13:37:57.185Z,13.96
2023-04-18T13:40:25.435Z,14.26
2023-04-18T13:42:53.708Z,14.02
2023-04-18T13:45:22.008Z,13.65
2023-04-18T13:47:51.836Z,13.37
2023-04-18T13:50:20.329Z,13.49
2023-04-18T13:52:49.390Z,13.55
2023-04-18T13:55:18.723Z,13.20
2023-04-18T13:57:48.383Z,13.07
2023-04-18T14:00:17.569Z,12.94
2023-04-18T14:02:45.901Z,12.86
2023-04-18T14:05:16.057Z,12.81
2023-04-18T14:07:44.322Z,13.03
2023-04-18T14:10:12.849Z,13.05
2023-04-18T14:12:41.203Z,13.06
2023-04-18T14:15:10.902Z,13.13
2023-04-18T14:17:39.442Z,13.17
2023-04-18T14:20:09.340Z,13.06
2023-04-18T14:22:39.033Z,12.72
2023-04-18T14:25:08.760Z,12.60
2023-04-18T14:27:37.581Z,12.45
2023-04-18T14:30:08.714Z,12.60
2023-04-18T14:32:37.284Z,12.56
2023-04-18T14:35:07.100Z,12.36
2023-04-18T14:37:35.491Z,12.47
2023-04-18T14:40:08.360Z,12.39
2023-04-18T14:42:39.410Z,12.30
2023-04-18T14:45:11.615Z,12.36
2023-04-18T14:47:40.243Z,12.35
2023-04-18T14:50:11.805Z,12.41
2023-04-18T14:52:41.545Z,12.41
2023-04-18T14:55:11.612Z,12.59
2023-04-18T14:57:40.505Z,12.80
2023-04-18T15:00:10.422Z,13.07
2023-04-18T15:02:38.842Z,13.36
2023-04-18T15:05:08.513Z,13.48
2023-04-18T15:07:38.019Z,13.27
2023-04-18T15:10:07.525Z,13.15
2023-04-18T15:12:37.285Z,13.10
2023-04-18T15:15:06.360Z,13.16
2023-04-18T15:17:34.715Z,13.20
2023-04-18T15:20:05.635Z,13.37
2023-04-18T15:22:34.009Z,12.97
2023-04-18T15:25:02.415Z,12.80
2023-04-18T15:27:32.153Z,12.66
2023-04-18T15:30:02.419Z,12.49
2023-04-18T15:32:34.263Z,12.43
2023-04-18T15:35:03.054Z,12.45
2023-04-18T15:37:32.924Z,12.17
2023-04-18T15:40:02.120Z,11.70
2023-04-18T15:42:31.893Z,11.33
2023-04-18T15:45:01.720Z,11.16
2023-04-18T15:47:33.874Z,10.95
2023-04-18T15:50:03.389Z,10.82
2023-04-18T15:52:33.726Z,10.68
2023-04-18T15:55:02.125Z,10.71
2023-04-18T15:57:32.992Z,10.78
2023-04-18T16:00:02.813Z,10.78
2023-04-18T16:02:33.676Z,10.72
2023-04-18T16:05:01.929Z,10.67
2023-04-18T16:07:31.847Z,10.52
2023-04-18T16:10:02.639Z,10.36
2023-04-18T16:12:32.704Z,10.26
2023-04-18T16:15:02.322Z,10.09
2023-04-18T16:17:33.807Z,10.03
2023-04-18T16:20:02.476Z,9.94
2023-04-18T16:22:31.792Z,9.90
2023-04-18T16:25:00.221Z,9.83
2023-04-18T16:27:29.054Z,9.78
2023-04-18T16:29:57.406Z,9.72
2023-04-18T16:32:27.088Z,9.65
2023-04-18T16:34:55.409Z,9.56
2023-04-18T16:37:23.701Z,9.49
2023-04-18T16:39:52.020Z,9.46
2023-04-18T16:42:20.284Z,9.39
2023-04-18T16:44:48.548Z,9.36
2023-04-18T16:47:16.797Z,9.33
2023-04-18T16:49:47.801Z,9.28
2023-04-18T16:52:16.982Z,9.23
2023-04-18T16:54:45.563Z,9.13
2023-04-18T16:57:13.999Z,9.17
2023-04-18T16:59:42.757Z,9.10
2023-04-18T17:02:12.068Z,9.00
2023-04-18T17:04:41.114Z,9.00
2023-04-18T17:07:10.997Z,8.94
2023-04-18T17:09:39.474Z,8.94
2023-04-18T17:12:08.150Z,8.85
2023-04-18T17:14:37.550Z,8.77
2023-04-18T17:17:05.943Z,8.73
2023-04-18T17:19:34.211Z,8.71
2023-04-18T17:22:03.618Z,8.69
2023-04-18T17:24:33.491Z,8.62
2023-04-18T17:27:01.814Z,8.58
2023-04-18T17:29:30.384Z,8.52
2023-04-18T17:31:58.776Z,8.51
2023-04-18T17:34:27.066Z,8.49
2023-04-18T17:36:55.609Z,8.45
2023-04-18T17:39:27.109Z,8.37
2023-04-18T17:41:57.630Z,8.36
2023-04-18T17:44:26.186Z,8.36
2023-04-18T17:46:54.650Z,8.36
2023-04-18T17:49:23.136Z,8.31
2023-04-18T17:51:52.067Z,8.30
2023-04-18T17:54:20.691Z,8.24
2023-04-18T17:56:50.487Z,8.21
2023-04-18T17:59:20.438Z,8.14
2023-04-18T18:01:49.134Z,8.07
2023-04-18T18:04:18.074Z,8.05
2023-04-18T18:06:55.881Z,8.00
2023-04-18T18:09:24.901Z,7.97
2023-04-18T18:11:55.943Z,7.96
2023-04-18T18:14:26.587Z,7.97
2023-04-18T18:16:55.218Z,7.91
2023-04-18T18:19:26.383Z,7.81
2023-04-18T18:21:56.310Z,7.80
2023-04-18T18:24:27.085Z,7.74
2023-04-18T18:26:56.508Z,7.71
2023-04-18T18:29:26.747Z,7.70
2023-04-18T18:31:55.474Z,7.69
2023-04-18T18:34:24.054Z,7.67
2023-04-18T18:36:52.762Z,7.63
2023-04-18T18:39:21.367Z,7.60
2023-04-18T18:41:50.146Z,7.58
2023-04-18T18:44:18.415Z,7.56
2023-04-18T18:46:48.409Z,7.54
2023-04-18T18:49:17.008Z,7.49
2023-04-18T18:51:45.432Z,7.40
2023-04-18T18:54:13.775Z,7.41
2023-04-18T18:56:42.908Z,7.35
2023-04-18T18:59:11.629Z,7.35
2023-04-18T19:01:40.126Z,7.30
2023-04-18T19:04:10.894Z,7.23
2023-04-18T19:06:40.243Z,7.25
2023-04-18T19:09:08.614Z,7.21
2023-04-18T19:11:37.036Z,7.15
2023-04-18T19:14:06.139Z,7.07
2023-04-18T19:16:36.078Z,7.03
2023-04-18T19:19:04.863Z,6.99
2023-04-18T19:21:36.590Z,7.01
2023-04-18T19:24:05.675Z,6.98
2023-04-18T19:26:34.319Z,6.87
2023-04-18T19:29:03.035Z,6.92
2023-04-18T19:31:32.291Z,6.83
2023-04-18T19:34:00.844Z,6.84
2023-04-18T19:36:29.582Z,6.82
2023-04-18T19:38:59.648Z,6.77
2023-04-18T19:41:27.957Z,6.76
2023-04-18T19:43:56.781Z,6.78
2023-04-18T19:46:25.460Z,6.78
2023-04-18T19:48:53.853Z,6.73
2023-04-18T19:51:22.162Z,6.71
2023-04-18T19:53:51.144Z,6.68
2023-04-18T19:56:20.917Z,6.68
2023-04-18T19:58:49.335Z,6.64
2023-04-18T20:01:19.807Z,6.63
2023-04-18T20:03:49.361Z,6.58
2023-04-18T20:06:18.966Z,6.55
2023-04-18T20:08:47.324Z,6.50
2023-04-18T20:11:15.929Z,6.45
2023-04-18T20:13:46.069Z,6.41
2023-04-18T20:16:16.606Z,6.36
2023-04-18T20:18:47.555Z,6.33
2023-04-18T20:21:16.475Z,6.30
2023-04-18T20:23:45.337Z,6.26
2023-04-18T20:26:13.754Z,6.23
2023-04-18T20:28:42.003Z,6.19
2023-04-18T20:31:12.696Z,6.16
2023-04-18T20:33:41.259Z,6.11
2023-04-18T20:36:09.792Z,6.05
2023-04-18T20:38:38.144Z,6.02
2023-04-18T20:41:10.747Z,5.98
2023-04-18T20:43:39.116Z,5.95
2023-04-18T20:46:07.619Z,5.91
2023-04-18T20:48:37.660Z,5.85
2023-04-18T20:51:06.241Z,5.82
2023-04-18T20:53:34.533Z,5.80
2023-04-18T20:56:03.521Z,5.75
2023-04-18T20:58:32.318Z,5.71
2023-04-18T21:01:00.879Z,5.66
2023-04-18T21:03:29.329Z,5.63
2023-04-18T21:05:59.329Z,5.59
2023-04-18T21:08:27.612Z,5.52
2023-04-18T21:10:55.876Z,5.48
2023-04-18T21:13:24.573Z,5.45
2023-04-18T21:15:57.087Z,5.40
2023-04-18T21:18:25.906Z,5.37
2023-04-18T21:20:54.501Z,5.34
2023-04-18T21:23:25.295Z,5.31
2023-04-18T21:25:53.648Z,5.28
2023-04-18T21:28:21.952Z,5.25
2023-04-18T21:30:50.862Z,5.23
2023-04-18T21:33:19.322Z,5.19
2023-04-18T21:35:47.663Z,5.17
2023-04-18T21:38:15.944Z,5.15
2023-04-18T21:40:45.581Z,5.12
2023-04-18T21:43:13.835Z,5.11
2023-04-18T21:45:42.155Z,5.08
2023-04-18T21:48:10.613Z,5.07
2023-04-18T21:50:38.900Z,5.08
2023-04-18T21:53:07.189Z,5.03
2023-04-18T21:55:35.639Z,5.03
2023-04-18T21:58:06.643Z,4.96
2023-04-18T22:00:34.872Z,4.96
2023-04-18T22:03:03.170Z,4.93
2023-04-18T22:05:33.344Z,4.90
2023-04-18T22:08:03.022Z,4.88
2023-04-18T22:10:31.213Z,4.87
2023-04-18T22:13:00.231Z,4.83
2023-04-18T22:15:30.137Z,4.81
2023-04-18T22:17:59.085Z,4.75
2023-04-18T22:20:27.444Z,4.70
2023-04-18T22:22:55.836Z,4.66
2023-04-18T22:25:24.068Z,4.62
2023-04-18T22:27:52.488Z,4.53
2023-04-18T22:30:20.756Z,4.52
2023-04-18T22:32:50.550Z,4.47
2023-04-18T22:35:19.026Z,4.46
2023-04-18T22:37:47.318Z,4.45
2023-04-18T22:40:16.546Z,4.44
2023-04-18T22:42:44.956Z,4.41
2023-04-18T22:45:13.731Z,4.38
2023-04-18T22:47:42.157Z,4.34
2023-04-18T22:50:12.561Z,4.33
2023-04-18T22:52:41.280Z,4.27
2023-04-18T22:55:10.394Z,4.24
2023-04-18T22:57:39.509Z,4.21
2023-04-18T23:00:10.321Z,4.20
2023-04-18T23:02:38.955Z,4.10
2023-04-18T23:05:08.050Z,4.14
2023-04-18T23:07:37.873Z,4.13
2023-04-18T23:10:07.690Z,4.13
2023-04-18T23:12:35.872Z,4.13
2023-04-18T23:15:04.232Z,4.09
2023-04-18T23:17:35.882Z,4.08
2023-04-18T23:20:06.860Z,4.05
2023-04-18T23:22:35.166Z,4.03
2023-04-18T23:25:05.162Z,4.05
2023-04-18T23:27:33.416Z,4.02
2023-04-18T23:30:01.724Z,4.01
2023-04-18T23:32:33.336Z,3.95
2023-04-18T23:35:04.254Z,3.97
2023-04-18T23:37:35.457Z,3.90
2023-04-18T23:40:06.921Z,3.88
2023-04-18T23:42:35.936Z,3.85
2023-04-18T23:45:05.901Z,3.82
2023-04-18T23:47:35.964Z,3.76
2023-04-18T23:50:04.366Z,3.76
2023-04-18T23:52:34.329Z,3.75
2023-04-18T23:55:02.865Z,3.72
2023-04-18T23:57:36.048Z,3.71
